Portsoy, United Kingdom
Current Conditions -  °F | °C
As of 9:50 PM on Sunday 23 Nov 2014 (Local Time) from EGQS Reporting Station
Rain Showers Rain Showers  
Wind Chill:   Ceiling: 5000
Heat Index:   Visibility: 6mi
Dew Point:   Wind: 15mph
Humidity: 87%   Direction: 240°WSW
Pressure: 29.91"   Gusts: NA
Location:  57.68°N, 2.69°W
Report Text: EGQS 232150Z 24013KT 9999 -SHRA FEW035 BKN050 06/04 Q1013 BLU NOSIG
Loading
Personal Weather Stations






























Interactive Weather Map New forecast layout! Learn more

10-Day Weather Forecast

Advertisements
Track Severe Weather on mobile